Time;durP1;ratioP1;P1;durP2;ratioP2;P2;SDS_P1;SDS_P2;PMS_P1;PMS_P2;Temp;Humidity;BMP_temperature;BMP_pressure;BME280_temperature;BME280_humidity;BME280_pressure;Samples;Min_cycle;Max_cycle;Signal;HPM_P1;HPM_P2
2021/03/21 00:01:15;;;;;;;;;;;;;;;21.70;38.30;102605.91;3099956;27;115709;-56
2021/03/21 00:02:46;;;;;;;;;;;;;;;21.70;38.07;102593.81;3091119;28;115876;-55
2021/03/21 00:04:19;;;;;;;;;;;;;;;21.70;38.47;102600.28;3092286;28;115600;-55
2021/03/21 00:05:51;;;;;;;;;;;;;;;21.69;38.30;102601.41;3117580;27;115783;-55
2021/03/21 00:07:23;;;;;;;;;;;;;;;21.71;38.80;102603.94;3097123;28;115643;-56
2021/03/21 00:08:54;;;;;;;;;;;;;;;21.71;38.02;102604.75;3093311;28;115570;-56
2021/03/21 00:10:27;;;;;;;;;;;;;;;21.72;38.63;102605.59;3091417;28;114005;-56
2021/03/21 00:11:58;;;;;;;;;;;;;;;21.70;38.25;102605.06;3087418;28;113694;-56
2021/03/21 00:13:29;;;;;;;;;;;;;;;21.69;38.24;102604.22;3111138;27;113734;-56
2021/03/21 00:15:01;;;;;;;;;;;;;;;21.69;38.09;102607.03;3096000;28;114108;-56
2021/03/21 00:16:33;;;;;;;;;;;;;;;21.69;38.19;102606.19;3086978;28;113789;-56
2021/03/21 00:18:04;;;;;;;;;;;;;;;21.68;38.76;102616.56;3091589;28;114109;-56
2021/03/21 00:19:36;;;;;;;;;;;;;;;21.68;38.71;102598.84;3091370;28;113839;-55
2021/03/21 00:21:09;;;;;;;;;;;;;;;21.67;38.41;102600.81;3087292;28;113914;-56
2021/03/21 00:22:41;;;;;;;;;;;;;;;21.68;39.11;102604.47;3095650;28;113661;-56
2021/03/21 00:24:12;;;;;;;;;;;;;;;21.67;38.81;102617.69;3100386;28;114042;-55
2021/03/21 00:25:44;;;;;;;;;;;;;;;21.66;38.89;102601.97;3093131;28;113887;-55
2021/03/21 00:27:16;;;;;;;;;;;;;;;21.68;38.91;102596.88;3121316;27;113951;-54
2021/03/21 00:28:49;;;;;;;;;;;;;;;21.67;39.34;102594.34;3101312;27;113869;-56
2021/03/21 00:30:26;;;;;;;;;;;;;;;21.66;38.96;102599.16;3097823;28;114218;-55
2021/03/21 00:31:57;;;;;;;;;;;;;;;21.65;38.90;102594.63;3112697;27;115062;-55
2021/03/21 00:33:32;;;;;;;;;;;;;;;21.65;38.70;102588.16;3098564;27;115098;-55
2021/03/21 00:35:04;;;;;;;;;;;;;;;21.64;39.32;102584.50;3090451;28;114999;-55
2021/03/21 00:36:36;;;;;;;;;;;;;;;21.64;38.61;102581.69;3092343;28;115132;-55
2021/03/21 00:38:09;;;;;;;;;;;;;;;21.64;38.54;102583.66;3083690;28;115092;-55
2021/03/21 00:39:41;;;;;;;;;;;;;;;21.63;38.92;102581.94;3096234;28;115125;-55
2021/03/21 00:41:14;;;;;;;;;;;;;;;21.62;39.09;102580.28;3090242;28;115056;-55
2021/03/21 00:42:46;;;;;;;;;;;;;;;21.62;39.11;102571.84;3089568;28;113861;-56
2021/03/21 00:44:17;;;;;;;;;;;;;;;21.61;39.42;102565.38;3094258;28;114294;-55
2021/03/21 00:45:49;;;;;;;;;;;;;;;21.60;39.52;102572.09;3101919;28;115645;-56
2021/03/21 00:47:21;;;;;;;;;;;;;;;21.61;39.22;102576.63;3112999;27;115391;-56
2021/03/21 00:48:52;;;;;;;;;;;;;;;21.60;39.48;102571.25;3098290;27;114737;-55
2021/03/21 00:50:26;;;;;;;;;;;;;;;21.59;39.49;102567.59;3096003;28;115245;-56
2021/03/21 00:51:59;;;;;;;;;;;;;;;21.60;39.42;102568.44;3094976;28;115166;-56
2021/03/21 00:53:30;;;;;;;;;;;;;;;21.58;39.71;102568.72;3090099;28;117702;-55
2021/03/21 00:55:02;;;;;;;;;;;;;;;21.58;39.77;102565.91;3093934;28;114825;-55
2021/03/21 00:56:36;;;;;;;;;;;;;;;21.58;39.63;102571.53;3096728;28;115677;-56
2021/03/21 00:58:08;;;;;;;;;;;;;;;21.57;39.69;102566.19;3090544;28;115761;-56
2021/03/21 00:59:40;;;;;;;;;;;;;;;21.56;39.78;102570.13;3087036;28;115721;-55
2021/03/21 01:01:11;;;;;;;;;;;;;;;21.54;39.75;102573.19;3098293;28;115851;-56
2021/03/21 01:02:44;;;;;;;;;;;;;;;21.55;39.75;102568.44;3091081;28;115803;-56
2021/03/21 01:04:17;;;;;;;;;;;;;;;21.54;39.64;102566.72;3086662;28;115577;-55
2021/03/21 01:05:50;;;;;;;;;;;;;;;21.52;39.72;102561.41;3087933;28;115755;-56
2021/03/21 01:07:21;;;;;;;;;;;;;;;21.52;39.64;102564.22;3102466;27;115722;-56
2021/03/21 01:08:54;;;;;;;;;;;;;;;21.52;39.29;102569.84;3090502;28;116019;-56
2021/03/21 01:10:28;;;;;;;;;;;;;;;21.53;39.35;102567.88;3098278;28;115776;-56
2021/03/21 01:11:59;;;;;;;;;;;;;;;21.52;39.49;102563.38;3087682;28;116260;-56
2021/03/21 01:13:31;;;;;;;;;;;;;;;21.51;39.74;102564.47;3097620;28;115749;-56
2021/03/21 01:15:04;;;;;;;;;;;;;;;21.50;39.29;102571.22;3108538;27;116012;-56
2021/03/21 01:16:38;;;;;;;;;;;;;;;21.49;39.59;102581.63;3093855;28;113800;-56
2021/03/21 01:18:12;;;;;;;;;;;;;;;21.49;39.18;102572.31;3098013;28;114011;-55
2021/03/21 01:19:44;;;;;;;;;;;;;;;21.48;39.60;102577.13;3081647;28;113830;-56
2021/03/21 01:21:15;;;;;;;;;;;;;;;21.48;39.52;102585.56;3086438;28;113717;-55
2021/03/21 01:22:47;;;;;;;;;;;;;;;21.46;39.48;102572.91;3095803;28;114215;-56
2021/03/21 01:24:20;;;;;;;;;;;;;;;21.46;39.35;102572.91;3108256;27;113811;-56
2021/03/21 01:25:51;;;;;;;;;;;;;;;21.46;39.35;102575.69;3098095;28;114186;-55
2021/03/21 01:27:23;;;;;;;;;;;;;;;21.44;39.40;102570.34;3110370;27;114094;-55
2021/03/21 01:28:55;;;;;;;;;;;;;;;21.43;39.57;102570.63;3094034;28;113871;-56
2021/03/21 01:30:27;;;;;;;;;;;;;;;21.41;39.92;102568.09;3101703;27;113886;-56
2021/03/21 01:31:58;;;;;;;;;;;;;;;21.40;39.43;102573.97;3094465;28;114014;-56
2021/03/21 01:33:32;;;;;;;;;;;;;;;21.35;39.53;102566.38;3086664;28;113832;-55
2021/03/21 01:35:04;;;;;;;;;;;;;;;21.35;39.60;102566.38;3110554;27;113914;-56
2021/03/21 01:36:38;;;;;;;;;;;;;;;21.35;39.70;102568.38;3099412;28;113808;-56
2021/03/21 01:38:10;;;;;;;;;;;;;;;21.33;39.48;102565.81;3091949;28;115200;-55
2021/03/21 01:39:41;;;;;;;;;;;;;;;21.32;39.64;102558.50;3093332;28;115219;-55
2021/03/21 01:41:18;;;;;;;;;;;;;;;21.29;39.47;102559.91;3084627;28;115176;-55
2021/03/21 01:42:50;;;;;;;;;;;;;;;21.28;39.44;102557.34;3110380;27;115308;-55
2021/03/21 01:44:21;;;;;;;;;;;;;;;21.28;39.93;102560.16;3094307;28;115724;-55
2021/03/21 01:45:53;;;;;;;;;;;;;;;21.27;39.64;102552.84;3085488;28;115425;-55
2021/03/21 01:47:28;;;;;;;;;;;;;;;21.28;39.29;102560.16;3095478;28;114011;-55
2021/03/21 01:49:02;;;;;;;;;;;;;;;21.26;39.56;102562.38;3085116;28;115181;-55
2021/03/21 01:50:38;;;;;;;;;;;;;;;21.24;39.75;102559.88;3085826;28;115141;-55
2021/03/21 01:52:17;;;;;;;;;;;;;;;21.23;39.51;102562.94;3088950;28;115441;-55
2021/03/21 01:53:51;;;;;;;;;;;;;;;21.22;39.66;102558.44;3087985;28;115289;-55
2021/03/21 01:55:23;;;;;;;;;;;;;;;21.21;39.57;102565.22;3109214;27;115267;-55
2021/03/21 01:57:01;;;;;;;;;;;;;;;21.20;39.63;102564.34;3091758;28;115359;-55
2021/03/21 01:58:34;;;;;;;;;;;;;;;21.21;39.73;102566.03;3095434;28;115049;-56
2021/03/21 02:00:08;;;;;;;;;;;;;;;21.21;39.92;102563.22;3088912;28;114956;-55
2021/03/21 02:01:39;;;;;;;;;;;;;;;21.21;39.62;102563.22;3095487;28;115749;-55
2021/03/21 02:03:13;;;;;;;;;;;;;;;21.20;39.63;102557.88;3085813;28;115770;-55
2021/03/21 02:04:45;;;;;;;;;;;;;;;21.20;39.65;102557.88;3086324;28;114854;-54
2021/03/21 02:06:18;;;;;;;;;;;;;;;21.19;39.70;102559.00;3084999;28;115903;-55
2021/03/21 02:07:52;;;;;;;;;;;;;;;21.18;39.68;102555.34;3110544;28;115945;-56
2021/03/21 02:09:24;;;;;;;;;;;;;;;21.16;40.03;102559.56;3088356;28;115918;-55
2021/03/21 02:11:02;;;;;;;;;;;;;;;21.14;40.05;102551.38;3086393;28;115832;-55
2021/03/21 02:12:37;;;;;;;;;;;;;;;21.13;39.93;102554.47;3085813;28;114608;-54
2021/03/21 02:14:11;;;;;;;;;;;;;;;21.13;40.11;102551.66;3088120;28;115613;-56
2021/03/21 02:15:49;;;;;;;;;;;;;;;21.12;39.76;102549.94;3088320;28;115376;-56
2021/03/21 02:17:24;;;;;;;;;;;;;;;21.12;39.81;102564.00;3088438;28;116347;-55
2021/03/21 02:19:01;;;;;;;;;;;;;;;21.10;39.82;102571.84;3086898;28;114752;-55
2021/03/21 02:20:34;;;;;;;;;;;;;;;21.10;39.70;102569.03;3090666;28;115764;-55
2021/03/21 02:22:10;;;;;;;;;;;;;;;21.07;39.76;102559.19;3087723;28;113858;-55
2021/03/21 02:23:45;;;;;;;;;;;;;;;21.08;39.67;102565.63;3096962;28;114110;-55
2021/03/21 02:25:20;;;;;;;;;;;;;;;21.07;39.88;102562.00;3085236;28;114179;-55
2021/03/21 02:26:51;;;;;;;;;;;;;;;21.06;39.90;102556.66;3084668;28;113943;-55
2021/03/21 02:28:26;;;;;;;;;;;;;;;21.06;39.99;102546.25;3087831;28;114245;-55
2021/03/21 02:30:00;;;;;;;;;;;;;;;21.04;39.96;102550.44;3090917;28;113795;-55
2021/03/21 02:31:36;;;;;;;;;;;;;;;21.03;40.09;102554.41;3087881;28;113840;-55
2021/03/21 02:33:10;;;;;;;;;;;;;;;21.02;40.02;102553.56;3088056;28;113755;-55
2021/03/21 02:34:47;;;;;;;;;;;;;;;21.01;40.24;102543.44;3088382;28;113746;-55
2021/03/21 02:36:22;;;;;;;;;;;;;;;21.00;40.01;102555.78;3088198;28;113634;-56
2021/03/21 02:37:56;;;;;;;;;;;;;;;21.00;40.16;102546.50;3111375;27;113733;-55
2021/03/21 02:39:30;;;;;;;;;;;;;;;21.00;39.89;102544.53;3097683;28;113943;-55
2021/03/21 02:41:04;;;;;;;;;;;;;;;21.01;40.24;102546.22;3088693;28;113787;-56
2021/03/21 02:42:39;;;;;;;;;;;;;;;21.02;40.01;102549.91;3089841;28;114222;-55
2021/03/21 02:44:17;;;;;;;;;;;;;;;21.00;40.25;102544.53;3119113;27;114067;-55
2021/03/21 02:45:50;;;;;;;;;;;;;;;20.98;40.34;102543.13;3093657;28;114728;-56
2021/03/21 02:47:26;;;;;;;;;;;;;;;20.96;40.48;102545.34;3091752;28;113876;-56
2021/03/21 02:49:02;;;;;;;;;;;;;;;20.96;40.47;102557.44;3099857;28;114948;-56
2021/03/21 02:50:36;;;;;;;;;;;;;;;20.94;40.53;102551.22;3112081;27;116062;-57
2021/03/21 02:52:11;;;;;;;;;;;;;;;20.94;40.58;102547.59;3094206;27;115014;-55
2021/03/21 02:53:45;;;;;;;;;;;;;;;20.90;40.64;102546.44;3087476;28;115055;-56
2021/03/21 02:55:19;;;;;;;;;;;;;;;20.92;40.59;102544.22;3107207;27;115146;-56
2021/03/21 02:56:54;;;;;;;;;;;;;;;20.90;40.51;102536.03;3092851;27;113960;-56
2021/03/21 02:58:29;;;;;;;;;;;;;;;20.89;40.54;102540.00;3097166;28;115171;-56
2021/03/21 03:00:06;;;;;;;;;;;;;;;20.89;40.79;102536.34;3088637;28;115114;-56
2021/03/21 03:01:42;;;;;;;;;;;;;;;20.88;40.57;102543.91;3110231;27;115182;-56
2021/03/21 03:03:15;;;;;;;;;;;;;;;20.88;40.57;102543.06;3086753;28;115240;-56
2021/03/21 03:04:51;;;;;;;;;;;;;;;20.88;40.70;102538.28;3088505;28;115103;-55
2021/03/21 03:06:27;;;;;;;;;;;;;;;20.88;40.42;102546.72;3100403;28;115361;-55
2021/03/21 03:08:03;;;;;;;;;;;;;;;20.85;40.61;102544.44;3111983;28;115664;-55
2021/03/21 03:09:38;;;;;;;;;;;;;;;20.84;40.67;102549.25;3100923;28;115865;-55
2021/03/21 03:11:09;;;;;;;;;;;;;;;20.84;40.48;102549.25;3088127;28;117625;-56
2021/03/21 03:12:45;;;;;;;;;;;;;;;20.84;40.63;102554.00;3100167;28;115866;-55
2021/03/21 03:14:18;;;;;;;;;;;;;;;20.84;40.64;102546.44;3088969;28;116423;-55
2021/03/21 03:15:51;;;;;;;;;;;;;;;20.83;40.68;102541.06;3111447;27;116972;-55
2021/03/21 03:17:25;;;;;;;;;;;;;;;20.82;40.79;102536.56;3096238;27;115794;-55
2021/03/21 03:18:59;;;;;;;;;;;;;;;20.80;40.54;102542.44;3089059;28;114920;-54
2021/03/21 03:20:34;;;;;;;;;;;;;;;20.77;40.67;102545.81;3087522;28;116036;-55
2021/03/21 03:22:12;;;;;;;;;;;;;;;20.80;40.60;102547.25;3089370;28;115802;-56
2021/03/21 03:23:44;;;;;;;;;;;;;;;20.79;40.41;102543.59;3100977;27;115798;-57
2021/03/21 03:25:19;;;;;;;;;;;;;;;20.78;40.48;102538.22;3089631;28;115997;-57
2021/03/21 03:26:51;;;;;;;;;;;;;;;20.78;40.43;102541.03;3089140;28;114260;-55
2021/03/21 03:28:33;;;;;;;;;;;;;;;20.76;40.86;102544.09;3090629;28;115731;-55
2021/03/21 03:30:08;;;;;;;;;;;;;;;20.76;40.79;102546.91;3089058;28;113856;-55
2021/03/21 03:31:44;;;;;;;;;;;;;;;20.75;40.83;102539.63;3098147;28;114198;-56
2021/03/21 03:33:15;;;;;;;;;;;;;;;20.74;40.72;102537.09;3090735;28;113720;-55
2021/03/21 03:34:53;;;;;;;;;;;;;;;20.73;40.76;102543.81;3087528;28;114050;-56
2021/03/21 03:36:24;;;;;;;;;;;;;;;20.71;40.55;102549.72;3110409;27;113960;-56
2021/03/21 03:37:55;;;;;;;;;;;;;;;20.71;40.91;102552.53;3094067;27;114207;-55
2021/03/21 03:39:27;;;;;;;;;;;;;;;20.71;40.86;102537.63;3092818;28;113994;-55
2021/03/21 03:41:05;;;;;;;;;;;;;;;20.71;40.81;102551.69;3096819;28;114471;-55
2021/03/21 03:42:39;;;;;;;;;;;;;;;20.72;40.80;102539.31;3109320;27;114057;-55
2021/03/21 03:44:14;;;;;;;;;;;;;;;20.70;40.49;102544.38;3082450;28;113862;-55
2021/03/21 03:45:48;;;;;;;;;;;;;;;20.70;40.93;102545.22;3087802;28;114011;-56
2021/03/21 03:47:28;;;;;;;;;;;;;;;20.68;40.84;102543.78;3083371;28;113950;-56
2021/03/21 03:49:03;;;;;;;;;;;;;;;20.67;40.72;102542.91;3098799;28;114038;-55
2021/03/21 03:50:37;;;;;;;;;;;;;;;20.67;40.83;102545.72;3095452;27;113742;-54
2021/03/21 03:52:11;;;;;;;;;;;;;;;20.65;40.93;102541.50;3086941;28;115132;-55
2021/03/21 03:53:46;;;;;;;;;;;;;;;20.65;40.54;102538.72;3088677;28;115335;-56
2021/03/21 03:55:18;;;;;;;;;;;;;;;20.63;40.92;102538.97;3079965;28;115174;-56
2021/03/21 03:56:55;;;;;;;;;;;;;;;20.62;41.08;102540.09;3083608;28;115583;-56
2021/03/21 03:58:32;;;;;;;;;;;;;;;20.64;40.79;102535.03;3102831;28;115057;-55
2021/03/21 04:00:06;;;;;;;;;;;;;;;20.62;40.95;102528.88;3089223;28;115708;-56
2021/03/21 04:01:43;;;;;;;;;;;;;;;20.60;40.86;102535.84;3083117;28;115055;-55
2021/03/21 04:03:17;;;;;;;;;;;;;;;20.59;41.18;102535.00;3079592;28;114017;-56
2021/03/21 04:04:53;;;;;;;;;;;;;;;20.58;41.07;102530.50;3086820;28;115127;-56
2021/03/21 04:06:25;;;;;;;;;;;;;;;20.58;41.16;102527.69;3085542;28;115553;-55
2021/03/21 04:08:00;;;;;;;;;;;;;;;20.57;41.04;102525.19;3087118;28;114975;-56
2021/03/21 04:09:34;;;;;;;;;;;;;;;20.57;40.83;102528.84;3088386;28;114338;-55
2021/03/21 04:11:09;;;;;;;;;;;;;;;20.57;40.86;102520.41;3083426;28;115529;-55
2021/03/21 04:12:44;;;;;;;;;;;;;;;20.56;41.18;102526.28;3092192;28;114165;-55
2021/03/21 04:14:19;;;;;;;;;;;;;;;20.57;41.12;102525.19;3096300;28;116273;-56
2021/03/21 04:15:53;;;;;;;;;;;;;;;20.56;40.96;102527.13;3083935;28;116572;-55
2021/03/21 04:17:28;;;;;;;;;;;;;;;20.56;41.16;102531.91;3108791;27;116264;-56
2021/03/21 04:19:04;;;;;;;;;;;;;;;20.56;41.36;102537.53;3093239;28;116586;-56
2021/03/21 04:20:37;;;;;;;;;;;;;;;20.54;41.20;102532.16;3085145;28;116144;-56
2021/03/21 04:22:14;;;;;;;;;;;;;;;20.55;41.22;102533.88;3110720;27;116392;-56
2021/03/21 04:23:46;;;;;;;;;;;;;;;20.57;41.46;102528.00;3090863;27;115809;-54
2021/03/21 04:25:20;;;;;;;;;;;;;;;20.53;40.92;102527.69;3093955;28;116192;-55
2021/03/21 04:26:55;;;;;;;;;;;;;;;20.53;40.47;102524.88;3109671;27;116638;-58
2021/03/21 04:28:33;;;;;;;;;;;;;;;20.55;40.54;102528.25;3100562;27;115859;-56
2021/03/21 04:30:05;;;;;;;;;;;;;;;20.54;40.82;102531.31;3110326;27;116177;-55
2021/03/21 04:31:39;;;;;;;;;;;;;;;20.52;41.15;102530.75;3093867;28;115734;-56
2021/03/21 04:33:14;;;;;;;;;;;;;;;20.51;41.09;102529.91;3087905;28;116574;-55
2021/03/21 04:34:51;;;;;;;;;;;;;;;20.49;41.09;102525.69;3092186;28;115707;-55
2021/03/21 04:36:24;;;;;;;;;;;;;;;20.47;41.29;102528.75;3089572;28;115715;-55
2021/03/21 04:37:59;;;;;;;;;;;;;;;20.49;41.16;102528.50;3109415;27;113952;-55
2021/03/21 04:39:33;;;;;;;;;;;;;;;20.48;41.07;102533.25;3091131;27;113781;-56
2021/03/21 04:41:07;;;;;;;;;;;;;;;20.46;40.82;102534.63;3090317;28;114105;-55
2021/03/21 04:42:42;;;;;;;;;;;;;;;20.44;41.24;102525.66;3086793;28;114246;-56
2021/03/21 04:44:17;;;;;;;;;;;;;;;20.42;41.16;102526.75;3086605;28;113797;-55
2021/03/21 04:45:52;;;;;;;;;;;;;;;20.42;41.15;102531.53;3110936;28;113923;-55
2021/03/21 04:47:24;;;;;;;;;;;;;;;20.41;40.99;102525.06;3089700;28;113852;-56
2021/03/21 04:48:56;;;;;;;;;;;;;;;20.41;41.25;102532.63;3086425;28;113638;-56
2021/03/21 04:50:29;;;;;;;;;;;;;;;20.41;41.08;102535.44;3086906;28;113927;-56
2021/03/21 04:52:09;;;;;;;;;;;;;;;20.38;41.06;102538.78;3098891;28;113710;-55
2021/03/21 04:53:44;;;;;;;;;;;;;;;20.38;41.13;102528.41;3082132;28;113940;-55
2021/03/21 04:55:19;;;;;;;;;;;;;;;20.39;41.16;102535.72;3083963;28;113981;-55
2021/03/21 04:57:01;;;;;;;;;;;;;;;20.38;41.31;102535.97;3085855;28;113952;-56
2021/03/21 04:58:37;;;;;;;;;;;;;;;20.38;41.23;102544.41;3091054;28;113712;-56
2021/03/21 05:00:12;;;;;;;;;;;;;;;20.37;41.18;102542.72;3087039;28;116315;-55
2021/03/21 05:01:46;;;;;;;;;;;;;;;20.37;41.08;102542.72;3086272;28;115228;-55
2021/03/21 05:03:22;;;;;;;;;;;;;;;20.34;41.23;102546.91;3076420;28;115203;-56
2021/03/21 05:04:59;;;;;;;;;;;;;;;20.35;41.25;102542.16;3097182;28;113954;-56
2021/03/21 05:06:33;;;;;;;;;;;;;;;20.35;41.23;102542.16;3089059;28;115232;-55
2021/03/21 05:08:07;;;;;;;;;;;;;;;20.34;41.09;102546.91;3086521;28;115127;-55
2021/03/21 05:09:41;;;;;;;;;;;;;;;20.33;41.08;102541.56;3110081;27;115221;-55
2021/03/21 05:11:14;;;;;;;;;;;;;;;20.31;41.11;102543.78;3100169;28;115844;-54
2021/03/21 05:12:47;;;;;;;;;;;;;;;20.31;41.08;102544.63;3093452;28;115399;-55
2021/03/21 05:14:21;;;;;;;;;;;;;;;20.31;41.31;102540.97;3106364;28;116231;-55
2021/03/21 05:15:58;;;;;;;;;;;;;;;20.31;41.35;102546.56;3084930;28;115280;-55
2021/03/21 05:17:30;;;;;;;;;;;;;;;20.30;41.06;102542.09;3104984;27;115261;-55
2021/03/21 05:19:07;;;;;;;;;;;;;;;20.28;41.06;102542.31;3092984;28;114421;-55
2021/03/21 05:20:41;;;;;;;;;;;;;;;20.27;41.12;102532.22;3090707;28;115150;-55
2021/03/21 05:22:17;;;;;;;;;;;;;;;20.29;41.20;102548.78;3086022;28;115913;-56
2021/03/21 05:23:55;;;;;;;;;;;;;;;20.28;41.12;102544.28;3083303;28;115751;-55
2021/03/21 05:25:29;;;;;;;;;;;;;;;20.26;41.17;102535.31;3083122;28;115795;-56
2021/03/21 05:27:01;;;;;;;;;;;;;;;20.26;41.19;102540.91;3086579;28;116051;-55
2021/03/21 05:28:35;;;;;;;;;;;;;;;20.26;41.17;102546.53;3086884;28;115917;-55
2021/03/21 05:30:12;;;;;;;;;;;;;;;20.25;41.10;102548.50;3091788;28;115916;-56
2021/03/21 05:31:44;;;;;;;;;;;;;;;20.24;41.15;102546.78;3094424;28;115861;-55
2021/03/21 05:33:16;;;;;;;;;;;;;;;20.25;41.27;102550.44;3109468;27;114687;-56
2021/03/21 05:34:49;;;;;;;;;;;;;;;20.22;41.30;102546.19;3093390;27;115827;-56
2021/03/21 05:36:23;;;;;;;;;;;;;;;20.22;41.29;102548.16;3086486;28;116251;-55
2021/03/21 05:37:58;;;;;;;;;;;;;;;20.21;41.38;102549.28;3085884;28;115796;-55
2021/03/21 05:39:32;;;;;;;;;;;;;;;20.21;41.56;102554.91;3086641;28;115865;-55
2021/03/21 05:41:06;;;;;;;;;;;;;;;20.19;41.33;102551.50;3085887;28;115833;-55
2021/03/21 05:42:41;;;;;;;;;;;;;;;20.22;41.32;102559.38;3100750;28;115972;-55
2021/03/21 05:44:15;;;;;;;;;;;;;;;20.21;41.52;102560.53;3086044;28;113781;-55
2021/03/21 05:45:50;;;;;;;;;;;;;;;20.18;41.53;102561.88;3086482;28;113931;-55
2021/03/21 05:47:25;;;;;;;;;;;;;;;20.18;41.58;102559.06;3085533;28;113912;-55
2021/03/21 05:48:57;;;;;;;;;;;;;;;20.17;41.55;102564.97;3085047;28;113736;-55
2021/03/21 05:50:32;;;;;;;;;;;;;;;20.16;41.55;102558.50;3085403;28;113931;-55
2021/03/21 05:52:06;;;;;;;;;;;;;;;20.17;41.70;102562.16;3085855;28;113702;-54
2021/03/21 05:53:40;;;;;;;;;;;;;;;20.17;41.65;102567.78;3086363;28;113645;-55
2021/03/21 05:55:13;;;;;;;;;;;;;;;20.16;41.59;102574.50;3081291;28;113855;-55
2021/03/21 05:56:48;;;;;;;;;;;;;;;20.15;41.78;102576.44;3083951;28;113781;-56
2021/03/21 05:58:27;;;;;;;;;;;;;;;20.17;41.44;102573.41;3082897;28;113744;-56
2021/03/21 06:00:02;;;;;;;;;;;;;;;20.16;41.57;102585.72;3087055;28;113838;-55
2021/03/21 06:01:43;;;;;;;;;;;;;;;20.15;41.83;102584.03;3084135;28;114081;-55
2021/03/21 06:03:18;;;;;;;;;;;;;;;20.13;41.80;102577.81;3084358;28;113900;-55
2021/03/21 06:04:52;;;;;;;;;;;;;;;20.13;41.76;102583.44;3082845;28;113734;-55
2021/03/21 06:06:27;;;;;;;;;;;;;;;20.14;41.87;102593.53;3089458;28;113770;-55
2021/03/21 06:07:58;;;;;;;;;;;;;;;20.13;41.69;102597.47;3088177;28;115080;-56
2021/03/21 06:09:30;;;;;;;;;;;;;;;20.13;41.58;102601.13;3085408;28;115258;-56
2021/03/21 06:11:04;;;;;;;;;;;;;;;20.12;41.81;102607.88;3085490;28;115132;-55
2021/03/21 06:12:36;;;;;;;;;;;;;;;20.11;41.81;102606.16;3109555;27;115254;-56
2021/03/21 06:14:09;;;;;;;;;;;;;;;20.10;41.85;102612.03;3090482;28;115323;-56
2021/03/21 06:15:53;;;;;;;;;;;;;;;20.11;41.63;102608.13;3085830;28;115655;-55
2021/03/21 06:17:27;;;;;;;;;;;;;;;20.11;41.58;102605.31;3086790;28;115427;-56
2021/03/21 06:19:02;;;;;;;;;;;;;;;20.10;41.59;102601.66;3087269;28;115068;-56
2021/03/21 06:20:44;;;;;;;;;;;;;;;20.08;41.84;102609.47;3081929;28;115624;-56
2021/03/21 06:22:18;;;;;;;;;;;;;;;20.09;41.71;102604.72;3081302;28;115204;-56
2021/03/21 06:23:52;;;;;;;;;;;;;;;20.06;41.72;102603.31;3087648;28;115340;-55
2021/03/21 06:25:24;;;;;;;;;;;;;;;20.07;41.68;102599.41;3091374;28;115125;-56
2021/03/21 06:26:59;;;;;;;;;;;;;;;20.07;41.70;102606.97;3094930;28;116262;-55
2021/03/21 06:28:42;;;;;;;;;;;;;;;20.07;41.85;102595.75;3095079;28;114018;-55
2021/03/21 06:30:16;;;;;;;;;;;;;;;20.05;41.82;102597.94;3085063;28;115410;-56
2021/03/21 06:31:48;;;;;;;;;;;;;;;20.04;41.75;102594.28;3085934;28;117107;-54
2021/03/21 06:33:25;;;;;;;;;;;;;;;20.05;41.79;102595.13;3110659;27;115688;-56
2021/03/21 06:34:59;;;;;;;;;;;;;;;20.05;41.84;102596.00;3099974;28;115956;-55
2021/03/21 06:36:31;;;;;;;;;;;;;;;20.04;41.80;102597.09;3077386;28;115952;-55
2021/03/21 06:38:10;;;;;;;;;;;;;;;20.03;41.85;102603.84;3084774;28;116352;-55
2021/03/21 06:39:45;;;;;;;;;;;;;;;20.01;41.90;102603.25;3095749;28;116133;-55
2021/03/21 06:41:16;;;;;;;;;;;;;;;20.02;41.91;102606.91;3088992;28;115719;-56
2021/03/21 06:42:57;;;;;;;;;;;;;;;20.02;42.17;102609.72;3085786;28;117321;-55
2021/03/21 06:44:31;;;;;;;;;;;;;;;20.01;42.14;102614.47;3096673;28;116367;-55
2021/03/21 06:46:05;;;;;;;;;;;;;;;20.01;41.94;102610.81;3087747;28;115815;-55
2021/03/21 06:47:37;;;;;;;;;;;;;;;20.01;42.29;102606.06;3090203;28;115650;-54
2021/03/21 06:49:12;;;;;;;;;;;;;;;20.01;42.17;102610.81;3091229;28;115821;-55
2021/03/21 06:50:48;;;;;;;;;;;;;;;19.99;42.34;102622.28;3094232;28;115859;-55
2021/03/21 06:52:23;;;;;;;;;;;;;;;19.98;42.28;102617.81;3109626;28;114134;-55
2021/03/21 06:53:55;;;;;;;;;;;;;;;19.97;42.27;102618.91;3088975;28;113728;-54
2021/03/21 06:55:31;;;;;;;;;;;;;;;20.02;42.37;102620.94;3089293;28;113965;-55
2021/03/21 06:57:03;;;;;;;;;;;;;;;20.10;42.41;102621.31;3094542;28;113757;-56
2021/03/21 06:58:38;;;;;;;;;;;;;;;20.13;42.64;102617.94;3106140;27;113996;-56
2021/03/21 07:00:12;;;;;;;;;;;;;;;20.15;42.81;102626.13;3093799;27;113935;-55
2021/03/21 07:01:47;;;;;;;;;;;;;;;20.19;42.62;102625.31;3097005;28;113799;-55
2021/03/21 07:03:21;;;;;;;;;;;;;;;20.19;42.79;102622.50;3097047;28;113736;-55
2021/03/21 07:04:56;;;;;;;;;;;;;;;20.22;42.75;102624.78;3094259;28;114261;-55
2021/03/21 07:06:28;;;;;;;;;;;;;;;20.26;42.62;102633.53;3091938;28;113912;-54
2021/03/21 07:08:01;;;;;;;;;;;;;;;20.29;42.91;102631.03;3088170;28;113889;-55
2021/03/21 07:09:35;;;;;;;;;;;;;;;20.33;43.13;102632.22;3088193;28;113679;-54
2021/03/21 07:11:10;;;;;;;;;;;;;;;20.37;43.41;102638.16;3089245;28;113933;-55
2021/03/21 07:12:49;;;;;;;;;;;;;;;20.41;43.23;102644.94;3092543;28;113702;-55
2021/03/21 07:14:24;;;;;;;;;;;;;;;20.45;43.28;102637.66;3106525;28;115287;-56
2021/03/21 07:15:58;;;;;;;;;;;;;;;20.51;43.41;102644.19;3094499;28;115091;-55
2021/03/21 07:17:32;;;;;;;;;;;;;;;20.56;42.83;102638.63;3091045;28;115127;-54
2021/03/21 07:19:07;;;;;;;;;;;;;;;20.62;43.05;102640.34;3083526;28;115047;-55
2021/03/21 07:20:41;;;;;;;;;;;;;;;20.67;43.20;102640.41;3098488;28;115648;-56
2021/03/21 07:22:17;;;;;;;;;;;;;;;20.72;42.96;102635.66;3092920;28;115493;-55
2021/03/21 07:23:57;;;;;;;;;;;;;;;20.77;43.49;102648.88;3088658;28;115117;-55
2021/03/21 07:25:31;;;;;;;;;;;;;;;20.82;43.44;102643.31;3085085;28;115261;-56
2021/03/21 07:27:03;;;;;;;;;;;;;;;20.88;43.30;102647.88;3087335;28;115097;-56
2021/03/21 07:28:37;;;;;;;;;;;;;;;20.95;43.25;102647.63;3088416;28;113860;-54
2021/03/21 07:30:12;;;;;;;;;;;;;;;21.00;42.80;102656.94;3088135;28;115245;-56
2021/03/21 07:31:46;;;;;;;;;;;;;;;21.04;42.85;102652.47;3087280;28;114230;-55
2021/03/21 07:33:21;;;;;;;;;;;;;;;21.09;42.35;102649.69;3087983;28;115379;-55
2021/03/21 07:34:53;;;;;;;;;;;;;;;21.13;42.18;102648.06;3081383;28;115145;-56
2021/03/21 07:36:30;;;;;;;;;;;;;;;21.19;42.17;102651.75;3099490;28;115972;-55
2021/03/21 07:38:02;;;;;;;;;;;;;;;21.22;41.99;102646.44;3088082;28;115913;-55
2021/03/21 07:39:37;;;;;;;;;;;;;;;21.28;42.30;102642.56;3088221;28;115717;-55
2021/03/21 07:41:14;;;;;;;;;;;;;;;21.33;42.12;102650.16;3087584;28;115880;-56
2021/03/21 07:42:48;;;;;;;;;;;;;;;21.37;41.61;102654.13;3098803;28;115745;-55
2021/03/21 07:44:22;;;;;;;;;;;;;;;21.43;41.83;102653.03;3091400;28;115757;-55
2021/03/21 07:46:01;;;;;;;;;;;;;;;21.47;41.69;102651.38;3091018;28;115903;-56
2021/03/21 07:47:36;;;;;;;;;;;;;;;21.52;41.46;102661.81;3087581;28;114886;-55
2021/03/21 07:49:11;;;;;;;;;;;;;;;21.56;41.57;102663.78;3087298;28;116053;-55
2021/03/21 07:50:46;;;;;;;;;;;;;;;21.60;41.48;102664.09;3092859;28;115777;-55
2021/03/21 07:52:21;;;;;;;;;;;;;;;21.65;41.39;102667.78;3101833;28;116021;-55
2021/03/21 07:53:55;;;;;;;;;;;;;;;21.69;41.38;102665.25;3094845;28;115956;-55
2021/03/21 07:55:32;;;;;;;;;;;;;;;21.74;41.28;102668.09;3090142;28;115868;-55
2021/03/21 07:57:06;;;;;;;;;;;;;;;21.78;41.22;102662.75;3096061;28;115700;-55
2021/03/21 07:58:43;;;;;;;;;;;;;;;21.81;41.23;102663.03;3092490;28;116395;-56